KSNK/SNK METAR and TAF weather

Enter ICAO airport designator
Station Type Date Time Source
KSNK METAR 2019/04/25 08:15 UTC NOAA

KSNK 250815Z AUTO 24006KT 7SM CLR 11/11 A2988 RMK AO2 T01110111


Station Type Date Time Source
KSNK Decoded METAR 2019/04/25 08:15 UTC NOAA

Snyder, Winston Field Airport, TX, United States (KSNK) 32-41-36N 100-57-01W
Apr 25, 2019 - 04:15 AM EDT / 2019.04.25 0815 UTC
Wind: from the WSW (240 degrees) at 7 MPH (6 KT):0
Visibility: 7 mile(s):0
Sky conditions: clear
Temperature: 52.0 F (11.1 C)
Dew Point: 52.0 F (11.1 C)
Relative Humidity: 100%
Pressure (altimeter): 29.88 in. Hg (1011 hPa)
ob: KSNK 250815Z AUTO 24006KT 7SM CLR 11/11 A2988 RMK AO2 T01110111
cycle: 8

Station Type Date Time Source
KSNK TAF UTC NOAA

Error!

Example: see airport list